sensor_id;sensor_type;location;lat;lon;timestamp;temperature;humidity
58447;DHT22;44240;51.840;7.258;2023-12-07T00:02:04;4.90;85.50
58447;DHT22;44240;51.840;7.258;2023-12-07T00:04:31;4.90;85.60
58447;DHT22;44240;51.840;7.258;2023-12-07T00:06:57;4.90;85.70
58447;DHT22;44240;51.840;7.258;2023-12-07T00:09:24;4.90;85.60
58447;DHT22;44240;51.840;7.258;2023-12-07T00:11:51;4.90;85.60
58447;DHT22;44240;51.840;7.258;2023-12-07T00:14:18;4.90;85.50
58447;DHT22;44240;51.840;7.258;2023-12-07T00:16:45;4.90;85.60
58447;DHT22;44240;51.840;7.258;2023-12-07T00:19:12;4.90;85.70
58447;DHT22;44240;51.840;7.258;2023-12-07T00:21:39;4.90;85.60
58447;DHT22;44240;51.840;7.258;2023-12-07T00:24:05;4.90;85.60
58447;DHT22;44240;51.840;7.258;2023-12-07T00:26:32;4.90;85.50
58447;DHT22;44240;51.840;7.258;2023-12-07T00:28:59;5.00;85.50
58447;DHT22;44240;51.840;7.258;2023-12-07T00:31:26;4.90;85.50
58447;DHT22;44240;51.840;7.258;2023-12-07T00:33:52;4.90;85.50
58447;DHT22;44240;51.840;7.258;2023-12-07T00:36:19;4.90;85.50
58447;DHT22;44240;51.840;7.258;2023-12-07T00:38:46;4.90;85.50
58447;DHT22;44240;51.840;7.258;2023-12-07T00:41:13;4.90;85.50
58447;DHT22;44240;51.840;7.258;2023-12-07T00:43:40;4.90;85.60
58447;DHT22;44240;51.840;7.258;2023-12-07T00:46:07;4.90;85.60
58447;DHT22;44240;51.840;7.258;2023-12-07T00:48:34;4.90;85.70
58447;DHT22;44240;51.840;7.258;2023-12-07T00:51:01;4.90;85.60
58447;DHT22;44240;51.840;7.258;2023-12-07T00:53:29;4.90;85.60
58447;DHT22;44240;51.840;7.258;2023-12-07T00:55:56;4.90;85.60
58447;DHT22;44240;51.840;7.258;2023-12-07T00:58:22;4.90;85.50
58447;DHT22;44240;51.840;7.258;2023-12-07T01:00:50;4.90;85.50
58447;DHT22;44240;51.840;7.258;2023-12-07T01:03:17;4.90;85.50
58447;DHT22;44240;51.840;7.258;2023-12-07T01:05:44;4.90;85.50
58447;DHT22;44240;51.840;7.258;2023-12-07T01:08:11;4.90;85.50
58447;DHT22;44240;51.840;7.258;2023-12-07T01:10:38;4.90;85.50
58447;DHT22;44240;51.840;7.258;2023-12-07T01:13:04;4.90;85.60
58447;DHT22;44240;51.840;7.258;2023-12-07T01:15:32;4.90;85.70
58447;DHT22;44240;51.840;7.258;2023-12-07T01:17:59;4.90;85.70
58447;DHT22;44240;51.840;7.258;2023-12-07T01:20:25;4.90;85.70
58447;DHT22;44240;51.840;7.258;2023-12-07T01:22:52;4.90;85.70
58447;DHT22;44240;51.840;7.258;2023-12-07T01:25:19;4.90;85.60
58447;DHT22;44240;51.840;7.258;2023-12-07T01:27:49;4.90;85.60
58447;DHT22;44240;51.840;7.258;2023-12-07T01:30:16;4.90;85.50
58447;DHT22;44240;51.840;7.258;2023-12-07T01:32:43;4.90;85.50
58447;DHT22;44240;51.840;7.258;2023-12-07T01:35:10;4.90;85.60
58447;DHT22;44240;51.840;7.258;2023-12-07T01:37:37;4.90;85.60
58447;DHT22;44240;51.840;7.258;2023-12-07T01:40:05;4.90;85.50
58447;DHT22;44240;51.840;7.258;2023-12-07T01:42:37;4.90;85.50
58447;DHT22;44240;51.840;7.258;2023-12-07T01:45:07;4.90;85.60
58447;DHT22;44240;51.840;7.258;2023-12-07T01:47:35;4.80;85.60
58447;DHT22;44240;51.840;7.258;2023-12-07T01:50:04;4.80;85.60
58447;DHT22;44240;51.840;7.258;2023-12-07T01:52:31;4.90;85.60
58447;DHT22;44240;51.840;7.258;2023-12-07T01:54:59;4.80;85.60
58447;DHT22;44240;51.840;7.258;2023-12-07T01:57:26;4.80;85.60
58447;DHT22;44240;51.840;7.258;2023-12-07T01:59:53;4.80;85.60
58447;DHT22;44240;51.840;7.258;2023-12-07T02:02:20;4.80;85.60
58447;DHT22;44240;51.840;7.258;2023-12-07T02:04:47;4.80;85.60
58447;DHT22;44240;51.840;7.258;2023-12-07T02:07:14;4.80;85.50
58447;DHT22;44240;51.840;7.258;2023-12-07T02:09:41;4.80;85.50
58447;DHT22;44240;51.840;7.258;2023-12-07T02:12:09;4.80;85.50
58447;DHT22;44240;51.840;7.258;2023-12-07T02:14:36;4.80;85.50
58447;DHT22;44240;51.840;7.258;2023-12-07T02:19:57;4.80;85.40
58447;DHT22;44240;51.840;7.258;2023-12-07T02:22:39;4.80;85.40
58447;DHT22;44240;51.840;7.258;2023-12-07T02:25:08;4.80;85.30
58447;DHT22;44240;51.840;7.258;2023-12-07T02:27:41;4.80;85.30
58447;DHT22;44240;51.840;7.258;2023-12-07T02:30:08;4.80;85.30
58447;DHT22;44240;51.840;7.258;2023-12-07T02:32:39;4.80;85.20
58447;DHT22;44240;51.840;7.258;2023-12-07T02:35:08;4.80;85.10
58447;DHT22;44240;51.840;7.258;2023-12-07T02:37:42;4.80;85.10
58447;DHT22;44240;51.840;7.258;2023-12-07T02:40:09;4.80;85.00
58447;DHT22;44240;51.840;7.258;2023-12-07T02:42:38;4.80;85.00
58447;DHT22;44240;51.840;7.258;2023-12-07T02:45:08;4.80;84.80
58447;DHT22;44240;51.840;7.258;2023-12-07T02:48:00;4.70;84.80
58447;DHT22;44240;51.840;7.258;2023-12-07T02:50:27;4.70;84.80
58447;DHT22;44240;51.840;7.258;2023-12-07T02:52:54;4.70;84.70
58447;DHT22;44240;51.840;7.258;2023-12-07T02:55:22;4.70;84.80
58447;DHT22;44240;51.840;7.258;2023-12-07T02:57:49;4.70;84.80
58447;DHT22;44240;51.840;7.258;2023-12-07T03:00:16;4.70;84.80
58447;DHT22;44240;51.840;7.258;2023-12-07T03:02:43;4.70;84.90
58447;DHT22;44240;51.840;7.258;2023-12-07T03:05:10;4.70;84.80
58447;DHT22;44240;51.840;7.258;2023-12-07T03:07:36;4.70;84.80
58447;DHT22;44240;51.840;7.258;2023-12-07T03:10:03;4.70;84.80
58447;DHT22;44240;51.840;7.258;2023-12-07T03:12:31;4.60;84.80
58447;DHT22;44240;51.840;7.258;2023-12-07T03:14:57;4.60;84.80
58447;DHT22;44240;51.840;7.258;2023-12-07T03:17:24;4.60;84.80
58447;DHT22;44240;51.840;7.258;2023-12-07T03:19:51;4.60;84.80
58447;DHT22;44240;51.840;7.258;2023-12-07T03:22:18;4.60;84.80
58447;DHT22;44240;51.840;7.258;2023-12-07T03:24:48;4.50;84.70
58447;DHT22;44240;51.840;7.258;2023-12-07T03:27:15;4.50;84.60
58447;DHT22;44240;51.840;7.258;2023-12-07T03:29:42;4.50;84.80
58447;DHT22;44240;51.840;7.258;2023-12-07T03:32:09;4.40;84.90
58447;DHT22;44240;51.840;7.258;2023-12-07T03:34:35;4.40;85.00
58447;DHT22;44240;51.840;7.258;2023-12-07T03:37:02;4.40;84.90
58447;DHT22;44240;51.840;7.258;2023-12-07T03:39:29;4.40;85.00
58447;DHT22;44240;51.840;7.258;2023-12-07T03:41:59;4.40;85.00
58447;DHT22;44240;51.840;7.258;2023-12-07T03:44:25;4.40;85.00
58447;DHT22;44240;51.840;7.258;2023-12-07T03:46:53;4.30;84.90
58447;DHT22;44240;51.840;7.258;2023-12-07T03:49:20;4.30;84.90
58447;DHT22;44240;51.840;7.258;2023-12-07T03:51:47;4.30;85.00
58447;DHT22;44240;51.840;7.258;2023-12-07T03:54:15;4.20;85.00
58447;DHT22;44240;51.840;7.258;2023-12-07T03:56:42;4.30;85.10
58447;DHT22;44240;51.840;7.258;2023-12-07T03:59:08;4.20;85.10
58447;DHT22;44240;51.840;7.258;2023-12-07T04:01:35;4.20;85.20
58447;DHT22;44240;51.840;7.258;2023-12-07T04:04:02;4.20;85.10
58447;DHT22;44240;51.840;7.258;2023-12-07T04:06:29;4.30;85.10
58447;DHT22;44240;51.840;7.258;2023-12-07T04:08:56;4.30;85.10
58447;DHT22;44240;51.840;7.258;2023-12-07T04:11:23;4.30;85.10
58447;DHT22;44240;51.840;7.258;2023-12-07T04:13:49;4.20;85.00
58447;DHT22;44240;51.840;7.258;2023-12-07T04:16:16;4.30;85.10
58447;DHT22;44240;51.840;7.258;2023-12-07T04:18:43;4.20;85.00
58447;DHT22;44240;51.840;7.258;2023-12-07T04:21:10;4.20;85.00
58447;DHT22;44240;51.840;7.258;2023-12-07T04:23:37;4.20;85.00
58447;DHT22;44240;51.840;7.258;2023-12-07T04:26:04;4.20;85.10
58447;DHT22;44240;51.840;7.258;2023-12-07T04:28:31;4.20;85.00
58447;DHT22;44240;51.840;7.258;2023-12-07T04:30:58;4.20;85.10
58447;DHT22;44240;51.840;7.258;2023-12-07T04:33:24;4.10;85.00
58447;DHT22;44240;51.840;7.258;2023-12-07T04:35:51;4.10;85.00
58447;DHT22;44240;51.840;7.258;2023-12-07T04:38:18;4.10;85.10
58447;DHT22;44240;51.840;7.258;2023-12-07T04:40:45;4.10;85.20
58447;DHT22;44240;51.840;7.258;2023-12-07T04:43:12;4.10;85.30
58447;DHT22;44240;51.840;7.258;2023-12-07T04:45:39;4.10;85.30
58447;DHT22;44240;51.840;7.258;2023-12-07T04:48:06;4.10;85.40
58447;DHT22;44240;51.840;7.258;2023-12-07T04:50:33;4.20;85.40
58447;DHT22;44240;51.840;7.258;2023-12-07T04:52:59;4.10;85.30
58447;DHT22;44240;51.840;7.258;2023-12-07T04:55:26;4.10;85.10
58447;DHT22;44240;51.840;7.258;2023-12-07T04:57:53;4.00;85.00
58447;DHT22;44240;51.840;7.258;2023-12-07T05:00:20;4.00;85.20
58447;DHT22;44240;51.840;7.258;2023-12-07T05:02:48;4.00;85.30
58447;DHT22;44240;51.840;7.258;2023-12-07T05:05:15;4.00;85.30
58447;DHT22;44240;51.840;7.258;2023-12-07T05:07:42;4.00;85.30
58447;DHT22;44240;51.840;7.258;2023-12-07T05:10:09;4.00;85.20
58447;DHT22;44240;51.840;7.258;2023-12-07T05:12:36;4.00;85.20
58447;DHT22;44240;51.840;7.258;2023-12-07T05:15:03;3.90;85.20
58447;DHT22;44240;51.840;7.258;2023-12-07T05:17:32;3.90;85.40
58447;DHT22;44240;51.840;7.258;2023-12-07T05:19:59;3.90;85.40
58447;DHT22;44240;51.840;7.258;2023-12-07T05:22:26;3.90;85.50
58447;DHT22;44240;51.840;7.258;2023-12-07T05:24:53;3.90;85.50
58447;DHT22;44240;51.840;7.258;2023-12-07T05:27:19;3.80;85.60
58447;DHT22;44240;51.840;7.258;2023-12-07T05:29:46;3.90;86.80
58447;DHT22;44240;51.840;7.258;2023-12-07T05:32:13;3.80;85.70
58447;DHT22;44240;51.840;7.258;2023-12-07T05:34:40;3.80;85.70
58447;DHT22;44240;51.840;7.258;2023-12-07T05:37:07;3.90;85.90
58447;DHT22;44240;51.840;7.258;2023-12-07T05:39:34;3.90;85.90
58447;DHT22;44240;51.840;7.258;2023-12-07T05:42:01;3.90;85.80
58447;DHT22;44240;51.840;7.258;2023-12-07T05:44:30;3.90;85.90
58447;DHT22;44240;51.840;7.258;2023-12-07T05:46:57;3.90;86.00
58447;DHT22;44240;51.840;7.258;2023-12-07T05:49:24;3.90;86.00
58447;DHT22;44240;51.840;7.258;2023-12-07T05:51:51;3.80;86.00
58447;DHT22;44240;51.840;7.258;2023-12-07T05:54:19;3.80;86.20
58447;DHT22;44240;51.840;7.258;2023-12-07T05:56:48;3.80;86.30
58447;DHT22;44240;51.840;7.258;2023-12-07T05:59:16;3.80;86.30
58447;DHT22;44240;51.840;7.258;2023-12-07T06:01:42;3.80;86.30
58447;DHT22;44240;51.840;7.258;2023-12-07T06:04:10;3.90;86.40
58447;DHT22;44240;51.840;7.258;2023-12-07T06:06:38;3.90;86.50
58447;DHT22;44240;51.840;7.258;2023-12-07T06:09:05;3.90;86.50
58447;DHT22;44240;51.840;7.258;2023-12-07T06:11:32;3.90;86.40
58447;DHT22;44240;51.840;7.258;2023-12-07T06:14:00;4.00;86.50
58447;DHT22;44240;51.840;7.258;2023-12-07T06:16:27;4.00;86.50
58447;DHT22;44240;51.840;7.258;2023-12-07T06:18:54;4.00;86.40
58447;DHT22;44240;51.840;7.258;2023-12-07T06:21:21;4.00;86.40
58447;DHT22;44240;51.840;7.258;2023-12-07T06:23:48;4.00;86.40
58447;DHT22;44240;51.840;7.258;2023-12-07T06:26:15;4.10;86.60
58447;DHT22;44240;51.840;7.258;2023-12-07T06:28:42;4.10;86.60
58447;DHT22;44240;51.840;7.258;2023-12-07T06:31:09;4.10;86.70
58447;DHT22;44240;51.840;7.258;2023-12-07T06:33:36;4.20;86.70
58447;DHT22;44240;51.840;7.258;2023-12-07T06:36:04;4.20;86.80
58447;DHT22;44240;51.840;7.258;2023-12-07T06:38:31;4.20;86.80
58447;DHT22;44240;51.840;7.258;2023-12-07T06:40:57;4.20;86.70
58447;DHT22;44240;51.840;7.258;2023-12-07T06:43:24;4.30;86.80
58447;DHT22;44240;51.840;7.258;2023-12-07T06:45:51;4.30;86.70
58447;DHT22;44240;51.840;7.258;2023-12-07T06:48:19;4.40;86.70
58447;DHT22;44240;51.840;7.258;2023-12-07T06:50:46;4.40;86.70
58447;DHT22;44240;51.840;7.258;2023-12-07T06:53:14;4.40;86.70
58447;DHT22;44240;51.840;7.258;2023-12-07T06:55:42;4.40;86.70
58447;DHT22;44240;51.840;7.258;2023-12-07T06:58:11;4.40;86.70
58447;DHT22;44240;51.840;7.258;2023-12-07T07:00:38;4.50;86.70
58447;DHT22;44240;51.840;7.258;2023-12-07T07:03:05;4.50;86.70
58447;DHT22;44240;51.840;7.258;2023-12-07T07:05:33;4.50;86.70
58447;DHT22;44240;51.840;7.258;2023-12-07T07:08:00;4.50;86.70
58447;DHT22;44240;51.840;7.258;2023-12-07T07:10:26;4.50;86.70
58447;DHT22;44240;51.840;7.258;2023-12-07T07:12:53;4.60;86.80
58447;DHT22;44240;51.840;7.258;2023-12-07T07:15:20;4.60;86.80
58447;DHT22;44240;51.840;7.258;2023-12-07T07:17:47;4.60;86.80
58447;DHT22;44240;51.840;7.258;2023-12-07T07:20:14;4.60;86.80
58447;DHT22;44240;51.840;7.258;2023-12-07T07:22:40;4.70;86.70
58447;DHT22;44240;51.840;7.258;2023-12-07T07:25:08;4.70;86.60
58447;DHT22;44240;51.840;7.258;2023-12-07T07:27:35;4.70;86.60
58447;DHT22;44240;51.840;7.258;2023-12-07T07:30:02;4.70;86.60
58447;DHT22;44240;51.840;7.258;2023-12-07T07:32:31;4.70;86.70
58447;DHT22;44240;51.840;7.258;2023-12-07T07:34:57;4.70;87.60
58447;DHT22;44240;51.840;7.258;2023-12-07T07:37:24;4.70;86.60
58447;DHT22;44240;51.840;7.258;2023-12-07T07:39:52;4.80;86.60
58447;DHT22;44240;51.840;7.258;2023-12-07T07:42:18;4.80;86.50
58447;DHT22;44240;51.840;7.258;2023-12-07T07:44:45;4.80;86.60
58447;DHT22;44240;51.840;7.258;2023-12-07T07:47:12;4.80;86.60
58447;DHT22;44240;51.840;7.258;2023-12-07T07:49:39;4.80;86.50
58447;DHT22;44240;51.840;7.258;2023-12-07T07:52:06;4.80;86.50
58447;DHT22;44240;51.840;7.258;2023-12-07T07:54:32;4.90;86.60
58447;DHT22;44240;51.840;7.258;2023-12-07T07:56:59;4.90;86.60
58447;DHT22;44240;51.840;7.258;2023-12-07T07:59:26;4.80;86.50
58447;DHT22;44240;51.840;7.258;2023-12-07T08:01:53;4.80;86.40
58447;DHT22;44240;51.840;7.258;2023-12-07T08:04:20;4.90;86.50
58447;DHT22;44240;51.840;7.258;2023-12-07T08:06:46;4.80;86.40
58447;DHT22;44240;51.840;7.258;2023-12-07T08:09:13;4.80;86.40
58447;DHT22;44240;51.840;7.258;2023-12-07T08:11:40;4.80;86.30
58447;DHT22;44240;51.840;7.258;2023-12-07T08:14:07;4.90;86.40
58447;DHT22;44240;51.840;7.258;2023-12-07T08:16:34;4.80;86.30
58447;DHT22;44240;51.840;7.258;2023-12-07T08:19:01;4.80;86.30
58447;DHT22;44240;51.840;7.258;2023-12-07T08:21:28;4.80;86.40
58447;DHT22;44240;51.840;7.258;2023-12-07T08:23:57;4.90;86.50
58447;DHT22;44240;51.840;7.258;2023-12-07T08:26:24;4.90;86.50
58447;DHT22;44240;51.840;7.258;2023-12-07T08:28:51;4.90;86.40
58447;DHT22;44240;51.840;7.258;2023-12-07T08:31:20;4.90;86.30
58447;DHT22;44240;51.840;7.258;2023-12-07T08:33:52;4.90;86.30
58447;DHT22;44240;51.840;7.258;2023-12-07T08:36:19;4.90;86.30
58447;DHT22;44240;51.840;7.258;2023-12-07T08:38:46;4.90;86.40
58447;DHT22;44240;51.840;7.258;2023-12-07T08:41:13;4.90;86.30
58447;DHT22;44240;51.840;7.258;2023-12-07T08:43:41;4.80;86.20
58447;DHT22;44240;51.840;7.258;2023-12-07T08:46:07;4.90;86.20
58447;DHT22;44240;51.840;7.258;2023-12-07T08:48:36;4.80;86.10
58447;DHT22;44240;51.840;7.258;2023-12-07T08:51:08;4.90;86.20
58447;DHT22;44240;51.840;7.258;2023-12-07T08:53:35;4.90;86.30
58447;DHT22;44240;51.840;7.258;2023-12-07T08:56:02;4.90;86.20
58447;DHT22;44240;51.840;7.258;2023-12-07T08:58:29;4.90;86.30
58447;DHT22;44240;51.840;7.258;2023-12-07T09:00:56;4.90;86.30
58447;DHT22;44240;51.840;7.258;2023-12-07T09:03:23;4.90;86.30
58447;DHT22;44240;51.840;7.258;2023-12-07T09:05:59;4.90;86.50
58447;DHT22;44240;51.840;7.258;2023-12-07T09:08:26;5.00;86.50
58447;DHT22;44240;51.840;7.258;2023-12-07T09:10:53;5.00;86.50
58447;DHT22;44240;51.840;7.258;2023-12-07T09:13:20;5.00;86.50
58447;DHT22;44240;51.840;7.258;2023-12-07T09:15:47;5.00;86.50
58447;DHT22;44240;51.840;7.258;2023-12-07T09:18:13;5.10;86.50
58447;DHT22;44240;51.840;7.258;2023-12-07T09:20:40;5.00;86.50
58447;DHT22;44240;51.840;7.258;2023-12-07T09:23:13;5.10;86.60
58447;DHT22;44240;51.840;7.258;2023-12-07T09:25:41;5.10;86.60
58447;DHT22;44240;51.840;7.258;2023-12-07T09:28:09;5.10;86.70
58447;DHT22;44240;51.840;7.258;2023-12-07T09:30:35;5.20;86.70
58447;DHT22;44240;51.840;7.258;2023-12-07T09:33:02;5.20;86.70
58447;DHT22;44240;51.840;7.258;2023-12-07T09:35:30;5.20;86.70
58447;DHT22;44240;51.840;7.258;2023-12-07T09:37:57;5.30;86.80
58447;DHT22;44240;51.840;7.258;2023-12-07T09:40:24;5.30;86.70
58447;DHT22;44240;51.840;7.258;2023-12-07T09:42:52;5.30;86.80
58447;DHT22;44240;51.840;7.258;2023-12-07T09:45:19;5.30;86.60
58447;DHT22;44240;51.840;7.258;2023-12-07T09:47:54;5.40;86.70
58447;DHT22;44240;51.840;7.258;2023-12-07T09:50:25;5.30;86.60
58447;DHT22;44240;51.840;7.258;2023-12-07T09:52:54;5.40;86.70
58447;DHT22;44240;51.840;7.258;2023-12-07T09:55:34;5.40;86.60
58447;DHT22;44240;51.840;7.258;2023-12-07T09:58:06;5.40;86.60
58447;DHT22;44240;51.840;7.258;2023-12-07T10:00:36;5.40;86.70
58447;DHT22;44240;51.840;7.258;2023-12-07T10:03:05;5.40;86.70
58447;DHT22;44240;51.840;7.258;2023-12-07T10:05:56;5.50;86.70
58447;DHT22;44240;51.840;7.258;2023-12-07T10:11:10;5.50;86.70
58447;DHT22;44240;51.840;7.258;2023-12-07T10:13:39;5.50;86.70
58447;DHT22;44240;51.840;7.258;2023-12-07T10:16:12;5.60;86.80
58447;DHT22;44240;51.840;7.258;2023-12-07T10:18:40;5.60;86.80
58447;DHT22;44240;51.840;7.258;2023-12-07T10:21:10;5.60;86.70
58447;DHT22;44240;51.840;7.258;2023-12-07T10:23:38;5.60;86.60
58447;DHT22;44240;51.840;7.258;2023-12-07T10:26:06;5.60;86.50
58447;DHT22;44240;51.840;7.258;2023-12-07T10:28:35;5.70;86.60
58447;DHT22;44240;51.840;7.258;2023-12-07T10:31:03;5.70;86.60
58447;DHT22;44240;51.840;7.258;2023-12-07T10:33:30;5.70;86.50
58447;DHT22;44240;51.840;7.258;2023-12-07T10:35:57;5.70;86.50
58447;DHT22;44240;51.840;7.258;2023-12-07T10:38:24;5.80;86.50
58447;DHT22;44240;51.840;7.258;2023-12-07T10:41:03;5.80;86.50
58447;DHT22;44240;51.840;7.258;2023-12-07T10:43:32;5.80;86.50
58447;DHT22;44240;51.840;7.258;2023-12-07T10:45:59;5.80;86.40
58447;DHT22;44240;51.840;7.258;2023-12-07T10:48:30;5.80;86.40
58447;DHT22;44240;51.840;7.258;2023-12-07T10:51:00;5.90;86.40
58447;DHT22;44240;51.840;7.258;2023-12-07T10:53:34;5.90;86.30
58447;DHT22;44240;51.840;7.258;2023-12-07T10:56:10;5.90;86.30
58447;DHT22;44240;51.840;7.258;2023-12-07T10:58:38;5.90;86.20
58447;DHT22;44240;51.840;7.258;2023-12-07T11:01:07;5.90;86.20
58447;DHT22;44240;51.840;7.258;2023-12-07T11:03:36;6.00;86.30
58447;DHT22;44240;51.840;7.258;2023-12-07T11:06:04;5.90;86.20
58447;DHT22;44240;51.840;7.258;2023-12-07T11:08:43;6.00;86.20
58447;DHT22;44240;51.840;7.258;2023-12-07T11:11:33;6.00;86.20
58447;DHT22;44240;51.840;7.258;2023-12-07T11:14:02;6.10;86.10
58447;DHT22;44240;51.840;7.258;2023-12-07T11:16:34;6.10;86.00
58447;DHT22;44240;51.840;7.258;2023-12-07T11:19:01;6.10;85.90
58447;DHT22;44240;51.840;7.258;2023-12-07T11:21:28;6.10;85.90
58447;DHT22;44240;51.840;7.258;2023-12-07T11:23:59;6.10;86.00
58447;DHT22;44240;51.840;7.258;2023-12-07T11:26:26;6.20;86.00
58447;DHT22;44240;51.840;7.258;2023-12-07T11:28:54;6.20;85.90
58447;DHT22;44240;51.840;7.258;2023-12-07T11:31:21;6.20;85.80
58447;DHT22;44240;51.840;7.258;2023-12-07T11:33:48;6.20;85.70
58447;DHT22;44240;51.840;7.258;2023-12-07T11:36:16;6.20;85.80
58447;DHT22;44240;51.840;7.258;2023-12-07T11:41:29;6.30;85.80
58447;DHT22;44240;51.840;7.258;2023-12-07T11:43:59;6.30;85.70
58447;DHT22;44240;51.840;7.258;2023-12-07T11:46:26;6.30;85.70
58447;DHT22;44240;51.840;7.258;2023-12-07T11:48:54;6.30;85.60
58447;DHT22;44240;51.840;7.258;2023-12-07T11:51:21;6.30;85.60
58447;DHT22;44240;51.840;7.258;2023-12-07T11:53:48;6.30;85.60
58447;DHT22;44240;51.840;7.258;2023-12-07T11:56:17;6.40;85.60
58447;DHT22;44240;51.840;7.258;2023-12-07T11:58:47;6.40;85.60
58447;DHT22;44240;51.840;7.258;2023-12-07T12:01:15;6.40;85.60
58447;DHT22;44240;51.840;7.258;2023-12-07T12:03:43;6.40;85.60
58447;DHT22;44240;51.840;7.258;2023-12-07T12:06:10;6.40;85.50
58447;DHT22;44240;51.840;7.258;2023-12-07T12:08:40;6.50;85.60
58447;DHT22;44240;51.840;7.258;2023-12-07T12:11:08;6.50;85.60
58447;DHT22;44240;51.840;7.258;2023-12-07T12:13:36;6.50;85.40
58447;DHT22;44240;51.840;7.258;2023-12-07T12:16:03;6.50;85.40
58447;DHT22;44240;51.840;7.258;2023-12-07T12:18:33;6.60;85.30
58447;DHT22;44240;51.840;7.258;2023-12-07T12:21:01;6.60;85.30
58447;DHT22;44240;51.840;7.258;2023-12-07T12:23:28;6.60;85.20
58447;DHT22;44240;51.840;7.258;2023-12-07T12:25:56;6.60;85.10
58447;DHT22;44240;51.840;7.258;2023-12-07T12:28:23;6.70;85.10
58447;DHT22;44240;51.840;7.258;2023-12-07T12:30:51;6.60;85.00
58447;DHT22;44240;51.840;7.258;2023-12-07T12:33:19;6.70;84.90
58447;DHT22;44240;51.840;7.258;2023-12-07T12:35:46;6.70;84.80
58447;DHT22;44240;51.840;7.258;2023-12-07T12:38:13;6.70;84.70
58447;DHT22;44240;51.840;7.258;2023-12-07T12:40:53;6.70;84.50
58447;DHT22;44240;51.840;7.258;2023-12-07T12:43:21;6.80;84.60
58447;DHT22;44240;51.840;7.258;2023-12-07T12:45:49;6.80;84.50
58447;DHT22;44240;51.840;7.258;2023-12-07T12:48:32;6.80;84.30
58447;DHT22;44240;51.840;7.258;2023-12-07T12:51:07;6.80;84.30
58447;DHT22;44240;51.840;7.258;2023-12-07T12:53:35;6.80;84.20
58447;DHT22;44240;51.840;7.258;2023-12-07T12:56:02;6.90;84.30
58447;DHT22;44240;51.840;7.258;2023-12-07T12:58:29;6.90;84.00
58447;DHT22;44240;51.840;7.258;2023-12-07T13:00:57;6.90;83.90
58447;DHT22;44240;51.840;7.258;2023-12-07T13:03:24;6.90;83.70
58447;DHT22;44240;51.840;7.258;2023-12-07T13:05:51;6.80;83.60
58447;DHT22;44240;51.840;7.258;2023-12-07T13:08:18;6.90;83.60
58447;DHT22;44240;51.840;7.258;2023-12-07T13:10:44;6.90;83.50
58447;DHT22;44240;51.840;7.258;2023-12-07T13:13:11;6.90;83.40
58447;DHT22;44240;51.840;7.258;2023-12-07T13:15:38;6.90;83.30
58447;DHT22;44240;51.840;7.258;2023-12-07T13:18:05;6.90;83.20
58447;DHT22;44240;51.840;7.258;2023-12-07T13:20:34;6.90;83.10
58447;DHT22;44240;51.840;7.258;2023-12-07T13:23:19;6.90;82.90
58447;DHT22;44240;51.840;7.258;2023-12-07T13:25:47;6.90;82.80
58447;DHT22;44240;51.840;7.258;2023-12-07T13:28:14;6.90;82.70
58447;DHT22;44240;51.840;7.258;2023-12-07T13:30:41;6.90;82.50
58447;DHT22;44240;51.840;7.258;2023-12-07T13:33:08;6.90;82.60
58447;DHT22;44240;51.840;7.258;2023-12-07T13:35:50;6.90;82.40
58447;DHT22;44240;51.840;7.258;2023-12-07T13:38:19;6.90;82.30
58447;DHT22;44240;51.840;7.258;2023-12-07T13:40:47;6.90;82.30
58447;DHT22;44240;51.840;7.258;2023-12-07T13:43:14;6.90;82.20
58447;DHT22;44240;51.840;7.258;2023-12-07T13:45:43;6.90;82.00
58447;DHT22;44240;51.840;7.258;2023-12-07T13:48:10;6.90;81.90
58447;DHT22;44240;51.840;7.258;2023-12-07T13:50:40;6.90;81.90
58447;DHT22;44240;51.840;7.258;2023-12-07T13:53:06;6.90;81.80
58447;DHT22;44240;51.840;7.258;2023-12-07T13:55:37;6.90;81.80
58447;DHT22;44240;51.840;7.258;2023-12-07T13:58:04;6.80;81.70
58447;DHT22;44240;51.840;7.258;2023-12-07T14:00:31;6.80;81.60
58447;DHT22;44240;51.840;7.258;2023-12-07T14:02:58;6.80;81.50
58447;DHT22;44240;51.840;7.258;2023-12-07T14:05:25;6.80;81.50
58447;DHT22;44240;51.840;7.258;2023-12-07T14:07:52;6.80;81.40
58447;DHT22;44240;51.840;7.258;2023-12-07T14:10:19;6.80;81.40
58447;DHT22;44240;51.840;7.258;2023-12-07T14:12:46;6.80;81.40
58447;DHT22;44240;51.840;7.258;2023-12-07T14:15:12;6.80;81.20
58447;DHT22;44240;51.840;7.258;2023-12-07T14:17:39;6.80;81.20
58447;DHT22;44240;51.840;7.258;2023-12-07T14:20:18;6.70;81.00
58447;DHT22;44240;51.840;7.258;2023-12-07T14:23:07;6.70;81.00
58447;DHT22;44240;51.840;7.258;2023-12-07T14:25:34;6.70;80.90
58447;DHT22;44240;51.840;7.258;2023-12-07T14:28:01;6.70;80.90
58447;DHT22;44240;51.840;7.258;2023-12-07T14:30:28;6.70;80.90
58447;DHT22;44240;51.840;7.258;2023-12-07T14:32:55;6.70;80.70
58447;DHT22;44240;51.840;7.258;2023-12-07T14:35:22;6.60;80.50
58447;DHT22;44240;51.840;7.258;2023-12-07T14:37:49;6.60;80.40
58447;DHT22;44240;51.840;7.258;2023-12-07T14:40:17;6.60;80.20
58447;DHT22;44240;51.840;7.258;2023-12-07T14:42:44;6.60;80.20
58447;DHT22;44240;51.840;7.258;2023-12-07T14:45:12;6.60;80.20
58447;DHT22;44240;51.840;7.258;2023-12-07T14:47:38;6.60;80.20
58447;DHT22;44240;51.840;7.258;2023-12-07T14:50:06;6.50;80.10
58447;DHT22;44240;51.840;7.258;2023-12-07T14:52:32;6.50;80.10
58447;DHT22;44240;51.840;7.258;2023-12-07T14:55:00;6.50;80.10
58447;DHT22;44240;51.840;7.258;2023-12-07T14:57:31;6.50;80.20
58447;DHT22;44240;51.840;7.258;2023-12-07T14:59:58;6.40;80.20
58447;DHT22;44240;51.840;7.258;2023-12-07T15:02:25;6.40;80.20
58447;DHT22;44240;51.840;7.258;2023-12-07T15:04:52;6.40;80.30
58447;DHT22;44240;51.840;7.258;2023-12-07T15:07:19;6.40;80.30
58447;DHT22;44240;51.840;7.258;2023-12-07T15:09:46;6.30;80.30
58447;DHT22;44240;51.840;7.258;2023-12-07T15:12:15;6.30;80.30
58447;DHT22;44240;51.840;7.258;2023-12-07T15:14:45;6.30;80.30
58447;DHT22;44240;51.840;7.258;2023-12-07T15:17:12;6.30;80.30
58447;DHT22;44240;51.840;7.258;2023-12-07T15:19:39;6.20;80.20
58447;DHT22;44240;51.840;7.258;2023-12-07T15:22:08;6.20;80.20
58447;DHT22;44240;51.840;7.258;2023-12-07T15:24:35;6.10;80.20
58447;DHT22;44240;51.840;7.258;2023-12-07T15:27:06;6.10;80.30
58447;DHT22;44240;51.840;7.258;2023-12-07T15:29:33;6.10;80.30
58447;DHT22;44240;51.840;7.258;2023-12-07T15:32:07;6.10;80.30
58447;DHT22;44240;51.840;7.258;2023-12-07T15:34:34;6.00;80.20
58447;DHT22;44240;51.840;7.258;2023-12-07T15:37:07;6.00;81.30
58447;DHT22;44240;51.840;7.258;2023-12-07T15:39:37;5.90;80.10
58447;DHT22;44240;51.840;7.258;2023-12-07T15:42:05;5.90;80.10
58447;DHT22;44240;51.840;7.258;2023-12-07T15:44:31;5.90;80.20
58447;DHT22;44240;51.840;7.258;2023-12-07T15:46:58;5.80;80.20
58447;DHT22;44240;51.840;7.258;2023-12-07T15:49:26;5.80;80.10
58447;DHT22;44240;51.840;7.258;2023-12-07T15:51:53;5.80;80.10
58447;DHT22;44240;51.840;7.258;2023-12-07T15:54:26;5.80;80.10
58447;DHT22;44240;51.840;7.258;2023-12-07T15:57:05;5.70;80.20
58447;DHT22;44240;51.840;7.258;2023-12-07T15:59:33;5.70;80.10